Synergy — WCZ5278 — position and weather

sailwx.info

Track history (hours):
 
Tides and Currents Weather Stations Pressure Air Temp Water Temp Dewpoint Dewpoint Depression Visibility Wind Speed Wind Dir Waves Ship Positions

Synergy

Owner: ERGON MARINE & INDUSTRIAL SUPPLY, VICKSBURG, MS. More information available from US FCC via Universal Licensing System.

Last reported at 2017-Sep-19 22:31 UTC. Time now 2017-Sep-19 22:41 UTC.
Position N 32°21' W 090°53'.

MMSI: 367101470.

Date/timePositionNaut miles runAvg speedWind from/ knotsBaromVisibWave heightAir tempDewpointWater temp
2017-Sep-19 22:31N 32°21' W 090°53'0 0.5
2017-Sep-19 22:01N 32°21' W 090°53'0 0.5
2017-Sep-19 21:31N 32°21' W 090°53'2 3.4
2017-Sep-19 21:01N 32°22' W 090°53'0 0.1
2017-Sep-19 20:30N 32°22' W 090°53'1 1.8
2017-Sep-19 20:01N 32°21' W 090°53'1 2.0
2017-Sep-19 19:31N 32°21' W 090°54'2 4.8
2017-Sep-19 19:00N 32°23' W 090°53'1 1.7
2017-Sep-19 18:31N 32°23' W 090°53'0 0.2
2017-Sep-19 18:00N 32°23' W 090°53'1 1.3
2017-Sep-19 17:31N 32°23' W 090°53'0 0.3
2017-Sep-19 17:01N 32°23' W 090°53'0 0.4
2017-Sep-19 16:30N 32°23' W 090°53'0 0.5
2017-Sep-19 16:01N 32°23' W 090°53'1 2.9
2017-Sep-19 15:31N 32°22' W 090°53'0 0.2
2017-Sep-19 15:00N 32°21' W 090°53'3 6.5
2017-Sep-19 14:31N 32°19' W 090°55'0 1.0
2017-Sep-19 14:01N 32°18' W 090°55'0 0.3
2017-Sep-19 13:31N 32°18' W 090°55'3 5.0
2017-Sep-19 13:01N 32°21' W 090°54'2 3.6
2017-Sep-19 12:31N 32°22' W 090°53'0 0.7
2017-Sep-19 12:01N 32°22' W 090°53'3 5.1
2017-Sep-19 11:31N 32°20' W 090°54'0 0.1
2017-Sep-19 11:01N 32°20' W 090°54'3 5.6
2017-Sep-19 10:30N 32°22' W 090°53'0 0.3
2017-Sep-19 10:01N 32°22' W 090°53'0 0.1
2017-Sep-19 09:30N 32°22' W 090°53'0 0.4
2017-Sep-19 09:00N 32°22' W 090°53'0 0.4
2017-Sep-19 08:30N 32°22' W 090°53'0 0.4
2017-Sep-19 08:01N 32°22' W 090°53'2 4.3
2017-Sep-19 07:31N 32°20' W 090°54'3 6.8
2017-Sep-19 07:00N 32°21' W 090°58'0 0.1
2017-Sep-19 06:31N 32°21' W 090°58'0 0.1
2017-Sep-19 06:00N 32°21' W 090°58'0 0.1
2017-Sep-19 05:30N 32°21' W 090°58'1 2.6
2017-Sep-19 05:01N 32°21' W 090°56'2 4.0
2017-Sep-19 04:30N 32°20' W 090°54'2 3.1
2017-Sep-19 04:01N 32°21' W 090°53'1 2.5
2017-Sep-19 03:31N 32°20' W 090°54'3 5.5
2017-Sep-19 03:01N 32°21' W 090°57'2 3.4
2017-Sep-19 02:30N 32°21' W 090°59'2 3.2
2017-Sep-19 02:00N 32°21' W 090°57'3 5.7
2017-Sep-19 01:30N 32°20' W 090°54'3 5.3
2017-Sep-19 01:00N 32°23' W 090°54'0 0.6
2017-Sep-19 00:31N 32°23' W 090°55'2 3.4
2017-Sep-19 00:01N 32°22' W 090°53'1 1.4
2017-Sep-18 23:30N 32°23' W 090°53'0 0.2
2017-Sep-18 23:01N 32°23' W 090°53'0 0.0
2017-Sep-18 22:30N 32°23' W 090°53'0 0.2
2017-Sep-18 22:00N 32°23' W 090°53'0 0.2
2017-Sep-18 21:30N 32°23' W 090°53'0 0.6
2017-Sep-18 21:01N 32°23' W 090°53'0 0.5
2017-Sep-18 20:30N 32°23' W 090°53'0 0.7
2017-Sep-18 20:01N 32°23' W 090°53'0 0.3
2017-Sep-18 19:31N 32°23' W 090°53'0 0.8
2017-Sep-18 19:00N 32°23' W 090°54'0 1.0
2017-Sep-18 18:30N 32°23' W 090°53'0 0.4
2017-Sep-18 18:00N 32°23' W 090°53'0 0.8
2017-Sep-18 17:31N 32°23' W 090°54'1 1.9
2017-Sep-18 17:01N 32°23' W 090°53'1 1.5
2017-Sep-18 16:31N 32°22' W 090°53'1 2.4
2017-Sep-18 16:01N 32°21' W 090°53'2 4.9
2017-Sep-18 15:30N 32°21' W 090°56'2 4.8
2017-Sep-18 15:00N 32°21' W 090°59'0 0.0
2017-Sep-18 14:31N 32°21' W 090°59'0 0.0
2017-Sep-18 14:01N 32°21' W 090°59'2 3.9
2017-Sep-18 13:30N 32°21' W 090°57'3 5.2
2017-Sep-18 13:01N 32°20' W 090°54'0 0.0
2017-Sep-18 12:30N 32°20' W 090°54'0 0.0
2017-Sep-18 12:00N 32°20' W 090°54'0 0.0
2017-Sep-18 11:30N 32°20' W 090°54'1 1.9
2017-Sep-18 11:00N 32°20' W 090°54'0 0.8
2017-Sep-18 10:30N 32°21' W 090°53'2 3.0
2017-Sep-18 10:00N 32°22' W 090°53'1 2.0
2017-Sep-18 09:30N 32°23' W 090°54'1 2.2
2017-Sep-18 09:00N 32°24' W 090°55'0 0.3
2017-Sep-18 08:30N 32°23' W 090°55'0 0.6
2017-Sep-18 08:00N 32°24' W 090°55'1 2.9
2017-Sep-18 07:30N 32°23' W 090°54'0 1.0
2017-Sep-18 07:00N 32°22' W 090°53'0 0.1
2017-Sep-18 06:30N 32°22' W 090°53'0 0.1
2017-Sep-18 06:00N 32°22' W 090°53'0 0.0
2017-Sep-18 05:30N 32°22' W 090°53'0 0.0
2017-Sep-18 04:42N 32°22' W 090°53'1 3.6
2017-Sep-18 04:30N 32°22' W 090°53'1 1.4
2017-Sep-18 04:00N 32°23' W 090°53'1 1.2
2017-Sep-18 03:30N 32°23' W 090°53'0 0.0
2017-Sep-18 03:00N 32°23' W 090°53'2 3.5
2017-Sep-18 02:30N 32°21' W 090°53'2 3.1
2017-Sep-18 02:00N 32°20' W 090°54'3 5.2
2017-Sep-18 01:31N 32°21' W 090°57'0 0.0
2017-Sep-18 01:01N 32°21' W 090°57'0 0.1
2017-Sep-18 00:31N 32°21' W 090°57'0 0.2
2017-Sep-18 00:00N 32°21' W 090°57'0 0.1
2017-Sep-17 23:31N 32°21' W 090°57'1 1.5
2017-Sep-17 23:01N 32°21' W 090°56'2 3.1
2017-Sep-17 22:31N 32°20' W 090°54'1 2.4
2017-Sep-17 22:00N 32°21' W 090°53'1 2.7
2017-Sep-17 21:31N 32°22' W 090°53'0 0.4
2017-Sep-17 21:00N 32°22' W 090°53'2 3.1
2017-Sep-17 20:31N 32°23' W 090°55'0 0.7
2017-Sep-17 20:00N 32°24' W 090°55'1 1.0
2017-Sep-17 19:31N 32°23' W 090°55'1 2.9
2017-Sep-17 19:01N 32°22' W 090°53'1 2.2
2017-Sep-17 18:30N 32°21' W 090°53'1 2.8
2017-Sep-17 18:00N 32°20' W 090°54'4 8.5
2017-Sep-17 17:30N 32°21' W 090°59'1 1.2
2017-Sep-17 17:01N 32°21' W 090°58'3 5.7
2017-Sep-17 16:30N 32°21' W 090°55'2 4.8
2017-Sep-17 16:00N 32°22' W 090°53'2 4.3
2017-Sep-17 15:31N 32°23' W 090°55'0 0.8
2017-Sep-17 15:00N 32°24' W 090°55'0 0.0
2017-Sep-17 14:30N 32°24' W 090°55'0 0.0
2017-Sep-17 14:01N 32°24' W 090°55'3 5.3
2017-Sep-17 13:30N 32°22' W 090°53'0 0.9
2017-Sep-17 13:01N 32°22' W 090°53'0 0.1
2017-Sep-17 12:31N 32°22' W 090°53'0 0.0
2017-Sep-17 12:01N 32°22' W 090°53'2 4.2
2017-Sep-17 11:31N 32°20' W 090°54'0 0.0
2017-Sep-17 11:01N 32°20' W 090°54'0 0.0
2017-Sep-17 10:31N 32°20' W 090°54'1 1.2
2017-Sep-17 10:01N 32°19' W 090°54'1 2.6
2017-Sep-17 09:31N 32°18' W 090°55'3 6.1
2017-Sep-17 09:00N 32°21' W 090°53'2 4.3
2017-Sep-17 08:31N 32°23' W 090°52'2 4.1
2017-Sep-17 08:00N 32°23' W 090°55'2 3.1
2017-Sep-17 07:30N 32°22' W 090°53'1 2.3
2017-Sep-17 07:01N 32°21' W 090°53'1 2.9
2017-Sep-17 06:30N 32°20' W 090°54'3 6.5
2017-Sep-17 06:00N 32°21' W 090°58'1 1.4
2017-Sep-17 05:30N 32°21' W 090°59'0 0.2
2017-Sep-17 05:01N 32°21' W 090°59'3 6.4
2017-Sep-17 04:31N 32°21' W 090°55'2 4.0
2017-Sep-17 04:00N 32°22' W 090°53'1 2.5
2017-Sep-17 03:31N 32°23' W 090°53'0 0.9
2017-Sep-17 03:00N 32°23' W 090°53'0 0.3
2017-Sep-17 02:30N 32°23' W 090°53'2 4.5
2017-Sep-17 02:01N 32°21' W 090°53'1 1.2
2017-Sep-17 01:30N 32°20' W 090°54'4 8.9
2017-Sep-17 01:01N 32°21' W 090°59'2 3.3
2017-Sep-17 00:31N 32°21' W 090°57'3 5.5
2017-Sep-17 00:00N 32°20' W 090°54'1 1.6
2017-Sep-16 23:30N 32°21' W 090°53'2 3.0
2017-Sep-16 23:01N 32°20' W 090°54'2 4.0
2017-Sep-16 22:31N 32°21' W 090°53'1 2.1
2017-Sep-16 22:01N 32°22' W 090°53'1 1.5
2017-Sep-16 21:31N 32°22' W 090°53'1 2.1
2017-Sep-16 21:01N 32°21' W 090°53'1 1.5
2017-Sep-16 20:31N 32°20' W 090°54'3 5.6
2017-Sep-16 20:00N 32°21' W 090°57'2 3.4
2017-Sep-16 19:31N 32°21' W 090°59'1 1.5
2017-Sep-16 19:01N 32°21' W 090°58'3 5.4
2017-Sep-16 18:30N 32°21' W 090°55'1 2.8
2017-Sep-16 18:00N 32°20' W 090°54'2 3.4
2017-Sep-16 17:31N 32°18' W 090°55'2 3.1
2017-Sep-16 17:00N 32°19' W 090°54'1 2.1
2017-Sep-16 16:30N 32°20' W 090°54'0 0.1
2017-Sep-16 16:01N 32°21' W 090°54'0 0.1
2017-Sep-16 15:31N 32°20' W 090°54'1 1.8
2017-Sep-16 15:00N 32°20' W 090°54'0 0.0
2017-Sep-16 14:31N 32°20' W 090°54'0 0.0
2017-Sep-16 14:01N 32°20' W 090°54'2 3.4
2017-Sep-16 13:31N 32°18' W 090°55'0 0.5
2017-Sep-16 13:00N 32°18' W 090°55'0 0.3
2017-Sep-16 12:31N 32°18' W 090°55'0 0.4
2017-Sep-16 12:01N 32°18' W 090°55'0 0.1
2017-Sep-16 11:30N 32°18' W 090°55'0 0.1
2017-Sep-16 11:01N 32°18' W 090°55'0 0.8
2017-Sep-16 10:31N 32°18' W 090°55'2 4.5
2017-Sep-16 10:01N 32°20' W 090°54'0 0.0
2017-Sep-16 09:30N 32°20' W 090°54'2 4.0
2017-Sep-16 09:01N 32°22' W 090°53'0 0.0
2017-Sep-16 08:30N 32°22' W 090°53'0 0.0
2017-Sep-16 08:01N 32°22' W 090°53'0 0.0
2017-Sep-16 07:31N 32°22' W 090°53'1 2.2
2017-Sep-16 07:01N 32°21' W 090°53'2 4.3
2017-Sep-16 06:30N 32°21' W 090°55'3 5.4
2017-Sep-16 06:01N 32°21' W 090°59'3 6.7
2017-Sep-16 05:31N 32°20' W 090°55'1 1.9
2017-Sep-16 05:01N 32°21' W 090°54'1 2.9
2017-Sep-16 04:30N 32°22' W 090°53'1 1.6
2017-Sep-16 04:01N 32°22' W 090°53'0 0.1
2017-Sep-16 03:30N 32°22' W 090°53'0 0.2
2017-Sep-16 03:01N 32°22' W 090°53'0 0.4
2017-Sep-16 02:31N 32°22' W 090°53'0 0.3
2017-Sep-16 02:01N 32°22' W 090°53'2 4.0
2017-Sep-16 01:31N 32°20' W 090°54'2 4.1
2017-Sep-16 01:01N 32°22' W 090°53'1 2.3
2017-Sep-16 00:30N 32°23' W 090°53'1 2.0
2017-Sep-16 00:01N 32°23' W 090°52'3 6.4
2017-Sep-15 23:31N 32°20' W 090°54'1 1.6
2017-Sep-15 23:00N 32°20' W 090°54'2 4.1
2017-Sep-15 22:30N 32°22' W 090°53'2 3.5
2017-Sep-15 22:00N 32°21' W 090°53'3 5.0
2017-Sep-15 21:30N 32°21' W 090°56'2 4.2
2017-Sep-15 21:00N 32°21' W 090°59'2 3.4
2017-Sep-15 20:30N 32°21' W 090°57'3 5.5
2017-Sep-15 20:00N 32°20' W 090°54'1 2.0
2017-Sep-15 19:30N 32°21' W 090°53'2 4.0
2017-Sep-15 19:00N 32°23' W 090°53'0 0.5
2017-Sep-15 18:30N 32°23' W 090°53'0 0.1
2017-Sep-15 18:00N 32°23' W 090°53'0 0.7
2017-Sep-15 17:30N 32°23' W 090°54'0 0.6
2017-Sep-15 17:00N 32°23' W 090°53'2 3.2
2017-Sep-15 16:30N 32°22' W 090°53'2 3.1
2017-Sep-15 16:00N 32°23' W 090°53'0 0.1
2017-Sep-15 15:30N 32°23' W 090°53'0 0.2
2017-Sep-15 15:00N 32°23' W 090°53'0 0.1
2017-Sep-15 14:30N 32°23' W 090°53'0 0.5
2017-Sep-15 14:00N 32°23' W 090°54'1 2.0
2017-Sep-15 13:30N 32°22' W 090°53'0 0.1
2017-Sep-15 13:00N 32°22' W 090°53'1 1.1
2017-Sep-15 12:30N 32°22' W 090°53'2 3.0
2017-Sep-15 12:00N 32°21' W 090°53'1 1.0
2017-Sep-15 11:30N 32°20' W 090°54'0 0.7
2017-Sep-15 11:00N 32°20' W 090°54'4 7.8
2017-Sep-15 10:30N 32°21' W 090°59'0 0.4
2017-Sep-15 10:00N 32°21' W 090°59'0 0.8
2017-Sep-15 09:30N 32°21' W 090°58'3 6.4
2017-Sep-15 09:00N 32°20' W 090°55'3 6.1
2017-Sep-15 08:30N 32°23' W 090°53'0 0.6
2017-Sep-15 08:00N 32°23' W 090°54'0 0.5
2017-Sep-15 07:30N 32°23' W 090°53'1 2.1
2017-Sep-15 07:00N 32°22' W 090°53'2 3.6
2017-Sep-15 06:30N 32°23' W 090°55'1 1.1
2017-Sep-15 06:00N 32°23' W 090°55'2 4.8
2017-Sep-15 05:30N 32°22' W 090°53'3 7.0
2017-Sep-15 05:00N 32°21' W 090°57'2 3.7
2017-Sep-15 04:30N 32°21' W 090°59'0 0.0
2017-Sep-15 04:00N 32°21' W 090°59'0 0.0
2017-Sep-15 03:30N 32°21' W 090°59'2 3.2
2017-Sep-15 03:00N 32°21' W 090°57'2 3.2
2017-Sep-15 02:30N 32°21' W 090°55'2 4.2
2017-Sep-15 02:00N 32°22' W 090°53'1 2.0
2017-Sep-15 01:30N 32°22' W 090°53'1 2.8
2017-Sep-15 01:00N 32°21' W 090°53'1 2.9
2017-Sep-15 00:30N 32°20' W 090°55'3 6.1
2017-Sep-15 00:00N 32°21' W 090°58'3 6.0
2017-Sep-14 23:30N 32°20' W 090°55'1 0.8
2017-Sep-14 22:09N 32°20' W 090°54'0 0.0
2017-Sep-14 22:01N 32°20' W 090°54'0 0.0
2017-Sep-14 21:31N 32°20' W 090°54'0 0.0
2017-Sep-14 20:51N 32°20' W 090°54'0 0.0
2017-Sep-14 20:30N 32°20' W 090°54'0 0.0
2017-Sep-14 20:00N 32°20' W 090°54'0 0.0
2017-Sep-14 19:30N 32°20' W 090°54'0 0.0
2017-Sep-14 19:00N 32°20' W 090°54'0 0.0
2017-Sep-14 18:30N 32°20' W 090°54'0 0.0
2017-Sep-14 18:00N 32°20' W 090°54'0 0.0
2017-Sep-14 17:30N 32°20' W 090°54'0 0.0
2017-Sep-14 17:00N 32°20' W 090°54'0 0.0
2017-Sep-14 16:30N 32°20' W 090°54'0 0.0
2017-Sep-14 16:01N 32°20' W 090°54'2 3.5
2017-Sep-14 15:30N 32°21' W 090°53'1 2.3
2017-Sep-14 15:00N 32°22' W 090°53'0 0.1
2017-Sep-14 14:30N 32°22' W 090°53'0 0.2
2017-Sep-14 14:00N 32°22' W 090°53'2 3.4
2017-Sep-14 13:30N 32°21' W 090°53'2 4.8
2017-Sep-14 13:00N 32°19' W 090°55'1 1.3
2017-Sep-14 12:30N 32°18' W 090°55'0 0.7
2017-Sep-14 12:00N 32°18' W 090°55'0 0.1
2017-Sep-14 11:31N 32°18' W 090°55'0 0.2
2017-Sep-14 11:01N 32°18' W 090°55'0 0.1
2017-Sep-14 10:31N 32°18' W 090°55'0 0.1
2017-Sep-14 10:01N 32°18' W 090°55'0 0.1
2017-Sep-14 09:31N 32°18' W 090°55'0 0.6
2017-Sep-14 09:01N 32°18' W 090°55'2 4.7
2017-Sep-14 08:30N 32°20' W 090°54'2 3.2
2017-Sep-14 08:01N 32°22' W 090°53'1 1.7
2017-Sep-14 07:30N 32°22' W 090°53'0 0.3
2017-Sep-14 07:01N 32°22' W 090°53'0 0.1
2017-Sep-14 06:30N 32°22' W 090°53'0 0.6
2017-Sep-14 06:01N 32°22' W 090°53'1 2.0
2017-Sep-14 05:30N 32°23' W 090°53'0 0.8
2017-Sep-14 05:01N 32°23' W 090°53'0 0.5
2017-Sep-14 04:31N 32°23' W 090°53'0 0.2
2017-Sep-14 04:01N 32°23' W 090°53'2 3.4
2017-Sep-14 03:30N 32°23' W 090°55'1 1.2
2017-Sep-14 03:00N 32°23' W 090°54'2 3.4
2017-Sep-14 02:30N 32°22' W 090°53'2 3.2
2017-Sep-14 02:01N 32°20' W 090°54'2 4.5
2017-Sep-14 01:31N 32°18' W 090°55'0 0.7
2017-Sep-14 01:00N 32°18' W 090°55'0 0.1
2017-Sep-14 00:31N 32°18' W 090°55'0 0.1
2017-Sep-14 00:01N 32°18' W 090°55'0 0.0
2017-Sep-13 23:31N 32°18' W 090°55'2 3.1
2017-Sep-13 22:54N 32°20' W 090°54'1 3.5
2017-Sep-13 22:31N 32°21' W 090°53'1 1.2
2017-Sep-13 22:01N 32°21' W 090°53'0 0.6
2017-Sep-13 21:30N 32°22' W 090°53'1 1.4
2017-Sep-13 21:00N 32°22' W 090°53'2 3.9
2017-Sep-13 20:31N 32°24' W 090°55'0 0.2
2017-Sep-13 20:00N 32°24' W 090°55'0 0.3
2017-Sep-13 19:30N 32°23' W 090°55'1 2.3
2017-Sep-13 19:00N 32°23' W 090°54'1 2.9
2017-Sep-13 18:31N 32°21' W 090°53'1 1.7
2017-Sep-13 18:00N 32°21' W 090°53'0 0.2
2017-Sep-13 17:30N 32°21' W 090°54'1 2.2
2017-Sep-13 17:01N 32°21' W 090°53'1 1.9
2017-Sep-13 16:31N 32°21' W 090°53'0 0.0
2017-Sep-13 16:00N 32°21' W 090°53'0 0.4
2017-Sep-13 15:30N 32°20' W 090°54'1 1.1
2017-Sep-13 14:40N 32°20' W 090°54'0 0.0
2017-Sep-13 14:30N 32°20' W 090°54'0 0.0
2017-Sep-13 14:00N 32°20' W 090°54'0 0.0
2017-Sep-13 13:30N 32°20' W 090°54'0 0.0
2017-Sep-13 13:00N 32°20' W 090°54'0 0.0
2017-Sep-13 11:41N 32°20' W 090°54'0 0.0
2017-Sep-13 11:30N 32°20' W 090°54'0 0.0
2017-Sep-13 11:00N 32°20' W 090°54'1 2.9
2017-Sep-13 10:30N 32°21' W 090°53'3 5.9
2017-Sep-13 10:00N 32°24' W 090°55'2 3.1
2017-Sep-13 09:30N 32°22' W 090°53'1 1.8
2017-Sep-13 09:00N 32°22' W 090°53'0 0.7
2017-Sep-13 08:30N 32°22' W 090°53'0 0.2
2017-Sep-13 08:00N 32°22' W 090°53'0 0.3
2017-Sep-13 07:30N 32°21' W 090°53'0 0.1
2017-Sep-13 07:00N 32°21' W 090°53'1 1.5
2017-Sep-13 06:30N 32°21' W 090°53'0 0.2
2017-Sep-13 06:00N 32°21' W 090°53'0 0.6
2017-Sep-13 05:30N 32°20' W 090°54'0 0.0
2017-Sep-13 05:00N 32°20' W 090°54'1 1.8
2017-Sep-13 04:31N 32°20' W 090°54'0 0.0
2017-Sep-13 04:00N 32°20' W 090°54'0 0.0
2017-Sep-13 03:31N 32°20' W 090°54'2 3.4
2017-Sep-13 03:00N 32°18' W 090°55'0 0.9
2017-Sep-13 02:30N 32°18' W 090°55'3 5.6
2017-Sep-13 02:00N 32°20' W 090°54'2 4.1
2017-Sep-13 01:31N 32°22' W 090°53'1 1.6
2017-Sep-13 01:00N 32°23' W 090°54'0 1.0
2017-Sep-13 00:30N 32°22' W 090°53'0 0.4
2017-Sep-13 00:00N 32°22' W 090°53'2 3.2
2017-Sep-12 23:30N 32°21' W 090°53'0 0.9
2017-Sep-12 23:00N 32°20' W 090°54'2 3.1
2017-Sep-12 22:30N 32°19' W 090°54'1 2.8
2017-Sep-12 22:00N 32°18' W 090°56'0 0.3
2017-Sep-12 21:31N 32°18' W 090°55'0 0.4
2017-Sep-12 21:00N 32°18' W 090°55'2 3.7
2017-Sep-12 20:30N 32°20' W 090°54'0 0.1
2017-Sep-12 20:00N 32°20' W 090°54'1 2.2
2017-Sep-12 19:30N 32°20' W 090°55'4 7.4
2017-Sep-12 19:00N 32°21' W 090°59'3 5.4
2017-Sep-12 18:31N 32°21' W 090°56'2 3.7
2017-Sep-12 18:00N 32°20' W 090°54'0 0.2
2017-Sep-12 17:30N 32°21' W 090°54'2 3.6
2017-Sep-12 17:00N 32°22' W 090°53'2 3.9
2017-Sep-12 16:30N 32°23' W 090°55'1 2.3
2017-Sep-12 16:00N 32°22' W 090°53'0 0.3
2017-Sep-12 15:31N 32°22' W 090°53'0 0.6
2017-Sep-12 15:00N 32°22' W 090°53'2 3.8
2017-Sep-12 14:31N 32°20' W 090°54'3 6.5
2017-Sep-12 14:01N 32°21' W 090°57'1 2.5
2017-Sep-12 13:30N 32°21' W 090°59'2 3.3
2017-Sep-12 13:00N 32°21' W 090°57'3 5.6
2017-Sep-12 12:30N 32°20' W 090°54'1 1.5
2017-Sep-12 12:01N 32°21' W 090°53'2 4.1
2017-Sep-12 11:30N 32°23' W 090°53'0 1.0
2017-Sep-12 11:01N 32°23' W 090°53'0 0.1
2017-Sep-12 10:31N 32°23' W 090°53'1 1.4
2017-Sep-12 10:01N 32°22' W 090°53'2 4.8
2017-Sep-12 09:31N 32°20' W 090°54'2 4.4
2017-Sep-12 09:01N 32°18' W 090°55'0 0.4
2017-Sep-12 08:30N 32°18' W 090°55'0 0.0
2017-Sep-12 08:01N 32°18' W 090°55'0 0.1
2017-Sep-12 07:31N 32°18' W 090°55'0 0.0
2017-Sep-12 07:00N 32°18' W 090°55'0 0.0
2017-Sep-12 06:30N 32°18' W 090°55'0 0.1
2017-Sep-12 06:01N 32°18' W 090°55'0 0.2
2017-Sep-12 05:30N 32°18' W 090°55'0 0.3
2017-Sep-12 05:01N 32°18' W 090°55'3 6.3
2017-Sep-12 04:30N 32°21' W 090°53'1 1.6
2017-Sep-12 04:00N 32°22' W 090°53'2 3.9
2017-Sep-12 03:31N 32°20' W 090°54'4 8.9
2017-Sep-12 03:01N 32°21' W 090°59'2 4.0
2017-Sep-12 02:30N 32°21' W 090°57'3 5.5
2017-Sep-12 02:01N 32°21' W 090°53'2 3.2
2017-Sep-12 01:30N 32°22' W 090°53'2 3.9
2017-Sep-12 01:00N 32°24' W 090°55'0 0.4
2017-Sep-12 00:30N 32°23' W 090°55'2 4.8
2017-Sep-12 00:01N 32°22' W 090°53'2 4.3
2017-Sep-11 23:30N 32°20' W 090°54'0 0.1
2017-Sep-11 23:00N 32°20' W 090°54'0 0.8
2017-Sep-11 22:30N 32°20' W 090°54'1 1.0
2017-Sep-11 22:01N 32°20' W 090°54'2 3.7
2017-Sep-11 21:30N 32°19' W 090°55'0 0.9
2017-Sep-11 21:00N 32°18' W 090°55'2 3.0
2017-Sep-11 20:30N 32°20' W 090°54'1 2.0
2017-Sep-11 20:00N 32°21' W 090°54'1 2.7
2017-Sep-11 19:30N 32°22' W 090°53'1 2.7
2017-Sep-11 19:01N 32°23' W 090°53'1 1.1
2017-Sep-11 18:30N 32°23' W 090°52'2 4.1
2017-Sep-11 18:00N 32°21' W 090°53'2 3.5
2017-Sep-11 17:30N 32°22' W 090°53'2 3.7
2017-Sep-11 17:01N 32°24' W 090°55'0 0.3
2017-Sep-11 16:30N 32°24' W 090°55'2 3.4
2017-Sep-11 16:00N 32°22' W 090°53'1 1.9
2017-Sep-11 15:30N 32°22' W 090°53'1 1.8
2017-Sep-11 15:00N 32°21' W 090°53'1 1.8
2017-Sep-11 14:30N 32°22' W 090°53'1 1.6
2017-Sep-11 14:00N 32°22' W 090°53'0 0.7
2017-Sep-11 13:30N 32°23' W 090°53'2 3.4
2017-Sep-11 13:00N 32°24' W 090°55'1 2.6
2017-Sep-11 12:30N 32°23' W 090°54'2 4.2
2017-Sep-11 12:00N 32°21' W 090°54'1 1.9
2017-Sep-11 11:30N 32°20' W 090°54'3 6.9
2017-Sep-11 11:00N 32°21' W 090°58'1 2.0
2017-Sep-11 10:30N 32°21' W 090°59'2 4.8
2017-Sep-11 10:00N 32°21' W 090°56'2 4.2
2017-Sep-11 09:30N 32°21' W 090°53'1 1.4
2017-Sep-11 09:00N 32°21' W 090°53'0 0.6
2017-Sep-11 08:30N 32°21' W 090°53'1 2.9
2017-Sep-11 08:00N 32°20' W 090°54'1 2.8
2017-Sep-11 07:30N 32°18' W 090°55'1 1.2
2017-Sep-11 07:00N 32°18' W 090°55'0 0.2
2017-Sep-11 06:30N 32°18' W 090°55'2 3.7
2017-Sep-11 06:00N 32°20' W 090°54'4 8.8
2017-Sep-11 05:30N 32°21' W 090°59'1 2.3
2017-Sep-11 05:00N 32°21' W 090°58'3 5.4
2017-Sep-11 04:30N 32°20' W 090°54'1 2.7
2017-Sep-11 04:00N 32°21' W 090°53'1 1.3
2017-Sep-11 03:30N 32°21' W 090°54'0 0.0
2017-Sep-11 03:00N 32°21' W 090°54'2 3.3
2017-Sep-11 02:30N 32°22' W 090°53'0 0.4
2017-Sep-11 02:00N 32°22' W 090°53'1 2.4
2017-Sep-11 01:30N 32°23' W 090°54'1 1.8
2017-Sep-11 01:00N 32°22' W 090°53'0 0.4
2017-Sep-11 00:30N 32°22' W 090°53'0 0.2
2017-Sep-11 00:00N 32°23' W 090°54'2 3.9
2017-Sep-10 23:30N 32°21' W 090°53'1 2.1
2017-Sep-10 23:00N 32°20' W 090°54'1 2.7
2017-Sep-10 22:30N 32°21' W 090°53'0 0.3
2017-Sep-10 22:00N 32°21' W 090°53'0 0.5
2017-Sep-10 21:30N 32°21' W 090°53'1 1.7
2017-Sep-10 21:00N 32°22' W 090°53'1 1.6
2017-Sep-10 20:30N 32°22' W 090°53'1 2.7
2017-Sep-10 20:00N 32°23' W 090°54'1 3.0
2017-Sep-10 19:30N 32°23' W 090°53'0 0.2
2017-Sep-10 19:00N 32°23' W 090°53'1 1.4
2017-Sep-10 18:30N 32°22' W 090°53'2 3.2
2017-Sep-10 18:00N 32°23' W 090°55'2 4.2
2017-Sep-10 17:30N 32°22' W 090°53'1 2.7
2017-Sep-10 17:00N 32°21' W 090°53'0 0.4
2017-Sep-10 16:30N 32°21' W 090°53'2 3.0
2017-Sep-10 16:00N 32°22' W 090°53'1 1.3
2017-Sep-10 15:30N 32°22' W 090°53'2 3.3
2017-Sep-10 15:01N 32°24' W 090°55'2 2.3
2017-Sep-10 14:00N 32°22' W 090°53'1 2.7
2017-Sep-10 13:30N 32°21' W 090°53'1 2.6
2017-Sep-10 13:00N 32°21' W 090°55'4 7.1
2017-Sep-10 12:30N 32°21' W 090°59'2 4.9
2017-Sep-10 12:00N 32°21' W 090°56'2 4.1
2017-Sep-10 11:30N 32°21' W 090°54'1 1.9
2017-Sep-10 11:00N 32°20' W 090°54'1 1.7
2017-Sep-10 10:30N 32°20' W 090°54'0 0.1
2017-Sep-10 10:00N 32°20' W 090°54'1 2.7
2017-Sep-10 09:30N 32°22' W 090°53'0 0.9
2017-Sep-10 09:00N 32°22' W 090°53'0 0.7
2017-Sep-10 08:30N 32°22' W 090°53'1 2.6
2017-Sep-10 08:00N 32°21' W 090°53'1 2.4
2017-Sep-10 07:30N 32°20' W 090°54'4 7.2
2017-Sep-10 07:00N 32°21' W 090°59'0 0.5
2017-Sep-10 06:30N 32°21' W 090°59'0 0.0
2017-Sep-10 06:00N 32°21' W 090°59'3 5.2
2017-Sep-10 05:30N 32°21' W 090°56'2 4.8
2017-Sep-10 05:00N 32°21' W 090°53'1 1.2
2017-Sep-10 04:30N 32°22' W 090°53'1 2.7
2017-Sep-10 04:00N 32°20' W 090°54'1 2.8
2017-Sep-10 03:30N 32°21' W 090°55'1 1.1
2017-Sep-10 03:00N 32°21' W 090°55'2 3.0
2017-Sep-10 02:30N 32°21' W 090°53'1 2.2
2017-Sep-10 02:00N 32°20' W 090°54'2 3.5
2017-Sep-10 01:30N 32°21' W 090°56'0 0.2
2017-Sep-10 01:00N 32°21' W 090°56'2 3.5
2017-Sep-10 00:30N 32°20' W 090°54'0 0.5
2017-Sep-10 00:00N 32°20' W 090°54'0 0.0
2017-Sep-09 23:30N 32°20' W 090°54'0 0.0
2017-Sep-09 23:00N 32°20' W 090°54'  
Track history (hours):
 
Tides and Currents Weather Stations Pressure Air Temp Water Temp Dewpoint Dewpoint Depression Visibility Wind Speed Wind Dir Waves Ship Positions

Synergy

Owner: ERGON MARINE & INDUSTRIAL SUPPLY, VICKSBURG, MS. More information available from US FCC via Universal Licensing System.

Last reported at 2017-Sep-19 22:31 UTC. Time now 2017-Sep-19 22:41 UTC.
Position N 32°21' W 090°53'.

MMSI: 367101470.

Date/timePositionNaut miles runAvg speedWind from/ knotsBaromVisibWave heightAir tempDewpointWater temp
2017-Sep-19 22:31N 32°21' W 090°53'0 0.5
2017-Sep-19 22:01N 32°21' W 090°53'0 0.5
2017-Sep-19 21:31N 32°21' W 090°53'2 3.4
2017-Sep-19 21:01N 32°22' W 090°53'0 0.1
2017-Sep-19 20:30N 32°22' W 090°53'1 1.8
2017-Sep-19 20:01N 32°21' W 090°53'1 2.0
2017-Sep-19 19:31N 32°21' W 090°54'2 4.8
2017-Sep-19 19:00N 32°23' W 090°53'1 1.7
2017-Sep-19 18:31N 32°23' W 090°53'0 0.2
2017-Sep-19 18:00N 32°23' W 090°53'1 1.3
2017-Sep-19 17:31N 32°23' W 090°53'0 0.3
2017-Sep-19 17:01N 32°23' W 090°53'0 0.4
2017-Sep-19 16:30N 32°23' W 090°53'0 0.5
2017-Sep-19 16:01N 32°23' W 090°53'1 2.9
2017-Sep-19 15:31N 32°22' W 090°53'0 0.2
2017-Sep-19 15:00N 32°21' W 090°53'3 6.5
2017-Sep-19 14:31N 32°19' W 090°55'0 1.0
2017-Sep-19 14:01N 32°18' W 090°55'0 0.3
2017-Sep-19 13:31N 32°18' W 090°55'3 5.0
2017-Sep-19 13:01N 32°21' W 090°54'2 3.6
2017-Sep-19 12:31N 32°22' W 090°53'0 0.7
2017-Sep-19 12:01N 32°22' W 090°53'3 5.1
2017-Sep-19 11:31N 32°20' W 090°54'0 0.1
2017-Sep-19 11:01N 32°20' W 090°54'3 5.6
2017-Sep-19 10:30N 32°22' W 090°53'0 0.3
2017-Sep-19 10:01N 32°22' W 090°53'0 0.1
2017-Sep-19 09:30N 32°22' W 090°53'0 0.4
2017-Sep-19 09:00N 32°22' W 090°53'0 0.4
2017-Sep-19 08:30N 32°22' W 090°53'0 0.4
2017-Sep-19 08:01N 32°22' W 090°53'2 4.3
2017-Sep-19 07:31N 32°20' W 090°54'3 6.8
2017-Sep-19 07:00N 32°21' W 090°58'0 0.1
2017-Sep-19 06:31N 32°21' W 090°58'0 0.1
2017-Sep-19 06:00N 32°21' W 090°58'0 0.1
2017-Sep-19 05:30N 32°21' W 090°58'1 2.6
2017-Sep-19 05:01N 32°21' W 090°56'2 4.0
2017-Sep-19 04:30N 32°20' W 090°54'2 3.1
2017-Sep-19 04:01N 32°21' W 090°53'1 2.5
2017-Sep-19 03:31N 32°20' W 090°54'3 5.5
2017-Sep-19 03:01N 32°21' W 090°57'2 3.4
2017-Sep-19 02:30N 32°21' W 090°59'2 3.2
2017-Sep-19 02:00N 32°21' W 090°57'3 5.7
2017-Sep-19 01:30N 32°20' W 090°54'3 5.3
2017-Sep-19 01:00N 32°23' W 090°54'0 0.6
2017-Sep-19 00:31N 32°23' W 090°55'2 3.4
2017-Sep-19 00:01N 32°22' W 090°53'1 1.4
2017-Sep-18 23:30N 32°23' W 090°53'0 0.2
2017-Sep-18 23:01N 32°23' W 090°53'0 0.0
2017-Sep-18 22:30N 32°23' W 090°53'0 0.2
2017-Sep-18 22:00N 32°23' W 090°53'0 0.2
2017-Sep-18 21:30N 32°23' W 090°53'0 0.6
2017-Sep-18 21:01N 32°23' W 090°53'0 0.5
2017-Sep-18 20:30N 32°23' W 090°53'0 0.7
2017-Sep-18 20:01N 32°23' W 090°53'0 0.3
2017-Sep-18 19:31N 32°23' W 090°53'0 0.8
2017-Sep-18 19:00N 32°23' W 090°54'0 1.0
2017-Sep-18 18:30N 32°23' W 090°53'0 0.4
2017-Sep-18 18:00N 32°23' W 090°53'0 0.8
2017-Sep-18 17:31N 32°23' W 090°54'1 1.9
2017-Sep-18 17:01N 32°23' W 090°53'1 1.5
2017-Sep-18 16:31N 32°22' W 090°53'1 2.4
2017-Sep-18 16:01N 32°21' W 090°53'2 4.9
2017-Sep-18 15:30N 32°21' W 090°56'2 4.8
2017-Sep-18 15:00N 32°21' W 090°59'0 0.0
2017-Sep-18 14:31N 32°21' W 090°59'0 0.0
2017-Sep-18 14:01N 32°21' W 090°59'2 3.9
2017-Sep-18 13:30N 32°21' W 090°57'3 5.2
2017-Sep-18 13:01N 32°20' W 090°54'0 0.0
2017-Sep-18 12:30N 32°20' W 090°54'0 0.0
2017-Sep-18 12:00N 32°20' W 090°54'0 0.0
2017-Sep-18 11:30N 32°20' W 090°54'1 1.9
2017-Sep-18 11:00N 32°20' W 090°54'0 0.8
2017-Sep-18 10:30N 32°21' W 090°53'2 3.0
2017-Sep-18 10:00N 32°22' W 090°53'1 2.0
2017-Sep-18 09:30N 32°23' W 090°54'1 2.2
2017-Sep-18 09:00N 32°24' W 090°55'0 0.3
2017-Sep-18 08:30N 32°23' W 090°55'0 0.6
2017-Sep-18 08:00N 32°24' W 090°55'1 2.9
2017-Sep-18 07:30N 32°23' W 090°54'0 1.0
2017-Sep-18 07:00N 32°22' W 090°53'0 0.1
2017-Sep-18 06:30N 32°22' W 090°53'0 0.1
2017-Sep-18 06:00N 32°22' W 090°53'0 0.0
2017-Sep-18 05:30N 32°22' W 090°53'0 0.0
2017-Sep-18 04:42N 32°22' W 090°53'1 3.6
2017-Sep-18 04:30N 32°22' W 090°53'1 1.4
2017-Sep-18 04:00N 32°23' W 090°53'1 1.2
2017-Sep-18 03:30N 32°23' W 090°53'0 0.0
2017-Sep-18 03:00N 32°23' W 090°53'2 3.5
2017-Sep-18 02:30N 32°21' W 090°53'2 3.1
2017-Sep-18 02:00N 32°20' W 090°54'3 5.2
2017-Sep-18 01:31N 32°21' W 090°57'0 0.0
2017-Sep-18 01:01N 32°21' W 090°57'0 0.1
2017-Sep-18 00:31N 32°21' W 090°57'0 0.2
2017-Sep-18 00:00N 32°21' W 090°57'0 0.1
2017-Sep-17 23:31N 32°21' W 090°57'1 1.5
2017-Sep-17 23:01N 32°21' W 090°56'2 3.1
2017-Sep-17 22:31N 32°20' W 090°54'1 2.4
2017-Sep-17 22:00N 32°21' W 090°53'1 2.7
2017-Sep-17 21:31N 32°22' W 090°53'0 0.4
2017-Sep-17 21:00N 32°22' W 090°53'2 3.1
2017-Sep-17 20:31N 32°23' W 090°55'0 0.7
2017-Sep-17 20:00N 32°24' W 090°55'1 1.0
2017-Sep-17 19:31N 32°23' W 090°55'1 2.9
2017-Sep-17 19:01N 32°22' W 090°53'1 2.2
2017-Sep-17 18:30N 32°21' W 090°53'1 2.8
2017-Sep-17 18:00N 32°20' W 090°54'4 8.5
2017-Sep-17 17:30N 32°21' W 090°59'1 1.2
2017-Sep-17 17:01N 32°21' W 090°58'3 5.7
2017-Sep-17 16:30N 32°21' W 090°55'2 4.8
2017-Sep-17 16:00N 32°22' W 090°53'2 4.3
2017-Sep-17 15:31N 32°23' W 090°55'0 0.8
2017-Sep-17 15:00N 32°24' W 090°55'0 0.0
2017-Sep-17 14:30N 32°24' W 090°55'0 0.0
2017-Sep-17 14:01N 32°24' W 090°55'3 5.3
2017-Sep-17 13:30N 32°22' W 090°53'0 0.9
2017-Sep-17 13:01N 32°22' W 090°53'0 0.1
2017-Sep-17 12:31N 32°22' W 090°53'0 0.0
2017-Sep-17 12:01N 32°22' W 090°53'2 4.2
2017-Sep-17 11:31N 32°20' W 090°54'0 0.0
2017-Sep-17 11:01N 32°20' W 090°54'0 0.0
2017-Sep-17 10:31N 32°20' W 090°54'1 1.2
2017-Sep-17 10:01N 32°19' W 090°54'1 2.6
2017-Sep-17 09:31N 32°18' W 090°55'3 6.1
2017-Sep-17 09:00N 32°21' W 090°53'2 4.3
2017-Sep-17 08:31N 32°23' W 090°52'2 4.1
2017-Sep-17 08:00N 32°23' W 090°55'2 3.1
2017-Sep-17 07:30N 32°22' W 090°53'1 2.3
2017-Sep-17 07:01N 32°21' W 090°53'1 2.9
2017-Sep-17 06:30N 32°20' W 090°54'3 6.5
2017-Sep-17 06:00N 32°21' W 090°58'1 1.4
2017-Sep-17 05:30N 32°21' W 090°59'0 0.2
2017-Sep-17 05:01N 32°21' W 090°59'3 6.4
2017-Sep-17 04:31N 32°21' W 090°55'2 4.0
2017-Sep-17 04:00N 32°22' W 090°53'1 2.5
2017-Sep-17 03:31N 32°23' W 090°53'0 0.9
2017-Sep-17 03:00N 32°23' W 090°53'0 0.3
2017-Sep-17 02:30N 32°23' W 090°53'2 4.5
2017-Sep-17 02:01N 32°21' W 090°53'1 1.2
2017-Sep-17 01:30N 32°20' W 090°54'4 8.9
2017-Sep-17 01:01N 32°21' W 090°59'2 3.3
2017-Sep-17 00:31N 32°21' W 090°57'3 5.5
2017-Sep-17 00:00N 32°20' W 090°54'1 1.6
2017-Sep-16 23:30N 32°21' W 090°53'2 3.0
2017-Sep-16 23:01N 32°20' W 090°54'2 4.0
2017-Sep-16 22:31N 32°21' W 090°53'1 2.1
2017-Sep-16 22:01N 32°22' W 090°53'1 1.5
2017-Sep-16 21:31N 32°22' W 090°53'1 2.1
2017-Sep-16 21:01N 32°21' W 090°53'1 1.5
2017-Sep-16 20:31N 32°20' W 090°54'3 5.6
2017-Sep-16 20:00N 32°21' W 090°57'2 3.4
2017-Sep-16 19:31N 32°21' W 090°59'1 1.5
2017-Sep-16 19:01N 32°21' W 090°58'3 5.4
2017-Sep-16 18:30N 32°21' W 090°55'1 2.8
2017-Sep-16 18:00N 32°20' W 090°54'2 3.4
2017-Sep-16 17:31N 32°18' W 090°55'2 3.1
2017-Sep-16 17:00N 32°19' W 090°54'1 2.1
2017-Sep-16 16:30N 32°20' W 090°54'0 0.1
2017-Sep-16 16:01N 32°21' W 090°54'0 0.1
2017-Sep-16 15:31N 32°20' W 090°54'1 1.8
2017-Sep-16 15:00N 32°20' W 090°54'0 0.0
2017-Sep-16 14:31N 32°20' W 090°54'0 0.0
2017-Sep-16 14:01N 32°20' W 090°54'2 3.4
2017-Sep-16 13:31N 32°18' W 090°55'0 0.5
2017-Sep-16 13:00N 32°18' W 090°55'0 0.3
2017-Sep-16 12:31N 32°18' W 090°55'0 0.4
2017-Sep-16 12:01N 32°18' W 090°55'0 0.1
2017-Sep-16 11:30N 32°18' W 090°55'0 0.1
2017-Sep-16 11:01N 32°18' W 090°55'0 0.8
2017-Sep-16 10:31N 32°18' W 090°55'2 4.5
2017-Sep-16 10:01N 32°20' W 090°54'0 0.0
2017-Sep-16 09:30N 32°20' W 090°54'2 4.0
2017-Sep-16 09:01N 32°22' W 090°53'0 0.0
2017-Sep-16 08:30N 32°22' W 090°53'0 0.0
2017-Sep-16 08:01N 32°22' W 090°53'0 0.0
2017-Sep-16 07:31N 32°22' W 090°53'1 2.2
2017-Sep-16 07:01N 32°21' W 090°53'2 4.3
2017-Sep-16 06:30N 32°21' W 090°55'3 5.4
2017-Sep-16 06:01N 32°21' W 090°59'3 6.7
2017-Sep-16 05:31N 32°20' W 090°55'1 1.9
2017-Sep-16 05:01N 32°21' W 090°54'1 2.9
2017-Sep-16 04:30N 32°22' W 090°53'1 1.6
2017-Sep-16 04:01N 32°22' W 090°53'0 0.1
2017-Sep-16 03:30N 32°22' W 090°53'0 0.2
2017-Sep-16 03:01N 32°22' W 090°53'0 0.4
2017-Sep-16 02:31N 32°22' W 090°53'0 0.3
2017-Sep-16 02:01N 32°22' W 090°53'2 4.0
2017-Sep-16 01:31N 32°20' W 090°54'2 4.1
2017-Sep-16 01:01N 32°22' W 090°53'1 2.3
2017-Sep-16 00:30N 32°23' W 090°53'1 2.0
2017-Sep-16 00:01N 32°23' W 090°52'3 6.4
2017-Sep-15 23:31N 32°20' W 090°54'1 1.6
2017-Sep-15 23:00N 32°20' W 090°54'2 4.1
2017-Sep-15 22:30N 32°22' W 090°53'2 3.5
2017-Sep-15 22:00N 32°21' W 090°53'3 5.0
2017-Sep-15 21:30N 32°21' W 090°56'2 4.2
2017-Sep-15 21:00N 32°21' W 090°59'2 3.4
2017-Sep-15 20:30N 32°21' W 090°57'3 5.5
2017-Sep-15 20:00N 32°20' W 090°54'1 2.0
2017-Sep-15 19:30N 32°21' W 090°53'2 4.0
2017-Sep-15 19:00N 32°23' W 090°53'0 0.5
2017-Sep-15 18:30N 32°23' W 090°53'0 0.1
2017-Sep-15 18:00N 32°23' W 090°53'0 0.7
2017-Sep-15 17:30N 32°23' W 090°54'0 0.6
2017-Sep-15 17:00N 32°23' W 090°53'2 3.2
2017-Sep-15 16:30N 32°22' W 090°53'2 3.1
2017-Sep-15 16:00N 32°23' W 090°53'0 0.1
2017-Sep-15 15:30N 32°23' W 090°53'0 0.2
2017-Sep-15 15:00N 32°23' W 090°53'0 0.1
2017-Sep-15 14:30N 32°23' W 090°53'0 0.5
2017-Sep-15 14:00N 32°23' W 090°54'1 2.0
2017-Sep-15 13:30N 32°22' W 090°53'0 0.1
2017-Sep-15 13:00N 32°22' W 090°53'1 1.1
2017-Sep-15 12:30N 32°22' W 090°53'2 3.0
2017-Sep-15 12:00N 32°21' W 090°53'1 1.0
2017-Sep-15 11:30N 32°20' W 090°54'0 0.7
2017-Sep-15 11:00N 32°20' W 090°54'4 7.8
2017-Sep-15 10:30N 32°21' W 090°59'0 0.4
2017-Sep-15 10:00N 32°21' W 090°59'0 0.8
2017-Sep-15 09:30N 32°21' W 090°58'3 6.4
2017-Sep-15 09:00N 32°20' W 090°55'3 6.1
2017-Sep-15 08:30N 32°23' W 090°53'0 0.6
2017-Sep-15 08:00N 32°23' W 090°54'0 0.5
2017-Sep-15 07:30N 32°23' W 090°53'1 2.1
2017-Sep-15 07:00N 32°22' W 090°53'2 3.6
2017-Sep-15 06:30N 32°23' W 090°55'1 1.1
2017-Sep-15 06:00N 32°23' W 090°55'2 4.8
2017-Sep-15 05:30N 32°22' W 090°53'3 7.0
2017-Sep-15 05:00N 32°21' W 090°57'2 3.7
2017-Sep-15 04:30N 32°21' W 090°59'0 0.0
2017-Sep-15 04:00N 32°21' W 090°59'0 0.0
2017-Sep-15 03:30N 32°21' W 090°59'2 3.2
2017-Sep-15 03:00N 32°21' W 090°57'2 3.2
2017-Sep-15 02:30N 32°21' W 090°55'2 4.2
2017-Sep-15 02:00N 32°22' W 090°53'1 2.0
2017-Sep-15 01:30N 32°22' W 090°53'1 2.8
2017-Sep-15 01:00N 32°21' W 090°53'1 2.9
2017-Sep-15 00:30N 32°20' W 090°55'3 6.1
2017-Sep-15 00:00N 32°21' W 090°58'3 6.0
2017-Sep-14 23:30N 32°20' W 090°55'1 0.8
2017-Sep-14 22:09N 32°20' W 090°54'0 0.0
2017-Sep-14 22:01N 32°20' W 090°54'0 0.0
2017-Sep-14 21:31N 32°20' W 090°54'0 0.0
2017-Sep-14 20:51N 32°20' W 090°54'0 0.0
2017-Sep-14 20:30N 32°20' W 090°54'0 0.0
2017-Sep-14 20:00N 32°20' W 090°54'0 0.0
2017-Sep-14 19:30N 32°20' W 090°54'0 0.0
2017-Sep-14 19:00N 32°20' W 090°54'0 0.0
2017-Sep-14 18:30N 32°20' W 090°54'0 0.0
2017-Sep-14 18:00N 32°20' W 090°54'0 0.0
2017-Sep-14 17:30N 32°20' W 090°54'0 0.0
2017-Sep-14 17:00N 32°20' W 090°54'0 0.0
2017-Sep-14 16:30N 32°20' W 090°54'0 0.0
2017-Sep-14 16:01N 32°20' W 090°54'2 3.5
2017-Sep-14 15:30N 32°21' W 090°53'1 2.3
2017-Sep-14 15:00N 32°22' W 090°53'0 0.1
2017-Sep-14 14:30N 32°22' W 090°53'0 0.2
2017-Sep-14 14:00N 32°22' W 090°53'2 3.4
2017-Sep-14 13:30N 32°21' W 090°53'2 4.8
2017-Sep-14 13:00N 32°19' W 090°55'1 1.3
2017-Sep-14 12:30N 32°18' W 090°55'0 0.7
2017-Sep-14 12:00N 32°18' W 090°55'0 0.1
2017-Sep-14 11:31N 32°18' W 090°55'0 0.2
2017-Sep-14 11:01N 32°18' W 090°55'0 0.1
2017-Sep-14 10:31N 32°18' W 090°55'0 0.1
2017-Sep-14 10:01N 32°18' W 090°55'0 0.1
2017-Sep-14 09:31N 32°18' W 090°55'0 0.6
2017-Sep-14 09:01N 32°18' W 090°55'2 4.7
2017-Sep-14 08:30N 32°20' W 090°54'2 3.2
2017-Sep-14 08:01N 32°22' W 090°53'1 1.7
2017-Sep-14 07:30N 32°22' W 090°53'0 0.3
2017-Sep-14 07:01N 32°22' W 090°53'0 0.1
2017-Sep-14 06:30N 32°22' W 090°53'0 0.6
2017-Sep-14 06:01N 32°22' W 090°53'1 2.0
2017-Sep-14 05:30N 32°23' W 090°53'0 0.8
2017-Sep-14 05:01N 32°23' W 090°53'0 0.5
2017-Sep-14 04:31N 32°23' W 090°53'0 0.2
2017-Sep-14 04:01N 32°23' W 090°53'2 3.4
2017-Sep-14 03:30N 32°23' W 090°55'1 1.2
2017-Sep-14 03:00N 32°23' W 090°54'2 3.4
2017-Sep-14 02:30N 32°22' W 090°53'2 3.2
2017-Sep-14 02:01N 32°20' W 090°54'2 4.5
2017-Sep-14 01:31N 32°18' W 090°55'0 0.7
2017-Sep-14 01:00N 32°18' W 090°55'0 0.1
2017-Sep-14 00:31N 32°18' W 090°55'0 0.1
2017-Sep-14 00:01N 32°18' W 090°55'0 0.0
2017-Sep-13 23:31N 32°18' W 090°55'2 3.1
2017-Sep-13 22:54N 32°20' W 090°54'1 3.5
2017-Sep-13 22:31N 32°21' W 090°53'1 1.2
2017-Sep-13 22:01N 32°21' W 090°53'0 0.6
2017-Sep-13 21:30N 32°22' W 090°53'1 1.4
2017-Sep-13 21:00N 32°22' W 090°53'2 3.9
2017-Sep-13 20:31N 32°24' W 090°55'0 0.2
2017-Sep-13 20:00N 32°24' W 090°55'0 0.3
2017-Sep-13 19:30N 32°23' W 090°55'1 2.3
2017-Sep-13 19:00N 32°23' W 090°54'1 2.9
2017-Sep-13 18:31N 32°21' W 090°53'1 1.7
2017-Sep-13 18:00N 32°21' W 090°53'0 0.2
2017-Sep-13 17:30N 32°21' W 090°54'1 2.2
2017-Sep-13 17:01N 32°21' W 090°53'1 1.9
2017-Sep-13 16:31N 32°21' W 090°53'0 0.0
2017-Sep-13 16:00N 32°21' W 090°53'0 0.4
2017-Sep-13 15:30N 32°20' W 090°54'1 1.1
2017-Sep-13 14:40N 32°20' W 090°54'0 0.0
2017-Sep-13 14:30N 32°20' W 090°54'0 0.0
2017-Sep-13 14:00N 32°20' W 090°54'0 0.0
2017-Sep-13 13:30N 32°20' W 090°54'0 0.0
2017-Sep-13 13:00N 32°20' W 090°54'0 0.0
2017-Sep-13 11:41N 32°20' W 090°54'0 0.0
2017-Sep-13 11:30N 32°20' W 090°54'0 0.0
2017-Sep-13 11:00N 32°20' W 090°54'1 2.9
2017-Sep-13 10:30N 32°21' W 090°53'3 5.9
2017-Sep-13 10:00N 32°24' W 090°55'2 3.1
2017-Sep-13 09:30N 32°22' W 090°53'1 1.8
2017-Sep-13 09:00N 32°22' W 090°53'0 0.7
2017-Sep-13 08:30N 32°22' W 090°53'0 0.2
2017-Sep-13 08:00N 32°22' W 090°53'0 0.3
2017-Sep-13 07:30N 32°21' W 090°53'0 0.1
2017-Sep-13 07:00N 32°21' W 090°53'1 1.5
2017-Sep-13 06:30N 32°21' W 090°53'0 0.2
2017-Sep-13 06:00N 32°21' W 090°53'0 0.6
2017-Sep-13 05:30N 32°20' W 090°54'0 0.0
2017-Sep-13 05:00N 32°20' W 090°54'1 1.8
2017-Sep-13 04:31N 32°20' W 090°54'0 0.0
2017-Sep-13 04:00N 32°20' W 090°54'0 0.0
2017-Sep-13 03:31N 32°20' W 090°54'2 3.4
2017-Sep-13 03:00N 32°18' W 090°55'0 0.9
2017-Sep-13 02:30N 32°18' W 090°55'3 5.6
2017-Sep-13 02:00N 32°20' W 090°54'2 4.1
2017-Sep-13 01:31N 32°22' W 090°53'1 1.6
2017-Sep-13 01:00N 32°23' W 090°54'0 1.0
2017-Sep-13 00:30N 32°22' W 090°53'0 0.4
2017-Sep-13 00:00N 32°22' W 090°53'2 3.2
2017-Sep-12 23:30N 32°21' W 090°53'0 0.9
2017-Sep-12 23:00N 32°20' W 090°54'2 3.1
2017-Sep-12 22:30N 32°19' W 090°54'1 2.8
2017-Sep-12 22:00N 32°18' W 090°56'0 0.3
2017-Sep-12 21:31N 32°18' W 090°55'0 0.4
2017-Sep-12 21:00N 32°18' W 090°55'2 3.7
2017-Sep-12 20:30N 32°20' W 090°54'0 0.1
2017-Sep-12 20:00N 32°20' W 090°54'1 2.2
2017-Sep-12 19:30N 32°20' W 090°55'4 7.4
2017-Sep-12 19:00N 32°21' W 090°59'3 5.4
2017-Sep-12 18:31N 32°21' W 090°56'2 3.7
2017-Sep-12 18:00N 32°20' W 090°54'0 0.2
2017-Sep-12 17:30N 32°21' W 090°54'2 3.6
2017-Sep-12 17:00N 32°22' W 090°53'2 3.9
2017-Sep-12 16:30N 32°23' W 090°55'1 2.3
2017-Sep-12 16:00N 32°22' W 090°53'0 0.3
2017-Sep-12 15:31N 32°22' W 090°53'0 0.6
2017-Sep-12 15:00N 32°22' W 090°53'2 3.8
2017-Sep-12 14:31N 32°20' W 090°54'3 6.5
2017-Sep-12 14:01N 32°21' W 090°57'1 2.5
2017-Sep-12 13:30N 32°21' W 090°59'2 3.3
2017-Sep-12 13:00N 32°21' W 090°57'3 5.6
2017-Sep-12 12:30N 32°20' W 090°54'1 1.5
2017-Sep-12 12:01N 32°21' W 090°53'2 4.1
2017-Sep-12 11:30N 32°23' W 090°53'0 1.0
2017-Sep-12 11:01N 32°23' W 090°53'0 0.1
2017-Sep-12 10:31N 32°23' W 090°53'1 1.4
2017-Sep-12 10:01N 32°22' W 090°53'2 4.8
2017-Sep-12 09:31N 32°20' W 090°54'2 4.4
2017-Sep-12 09:01N 32°18' W 090°55'0 0.4
2017-Sep-12 08:30N 32°18' W 090°55'0 0.0
2017-Sep-12 08:01N 32°18' W 090°55'0 0.1
2017-Sep-12 07:31N 32°18' W 090°55'0 0.0
2017-Sep-12 07:00N 32°18' W 090°55'0 0.0
2017-Sep-12 06:30N 32°18' W 090°55'0 0.1
2017-Sep-12 06:01N 32°18' W 090°55'0 0.2
2017-Sep-12 05:30N 32°18' W 090°55'0 0.3
2017-Sep-12 05:01N 32°18' W 090°55'3 6.3
2017-Sep-12 04:30N 32°21' W 090°53'1 1.6
2017-Sep-12 04:00N 32°22' W 090°53'2 3.9
2017-Sep-12 03:31N 32°20' W 090°54'4 8.9
2017-Sep-12 03:01N 32°21' W 090°59'2 4.0
2017-Sep-12 02:30N 32°21' W 090°57'3 5.5
2017-Sep-12 02:01N 32°21' W 090°53'2 3.2
2017-Sep-12 01:30N 32°22' W 090°53'2 3.9
2017-Sep-12 01:00N 32°24' W 090°55'0 0.4
2017-Sep-12 00:30N 32°23' W 090°55'2 4.8
2017-Sep-12 00:01N 32°22' W 090°53'2 4.3
2017-Sep-11 23:30N 32°20' W 090°54'0 0.1
2017-Sep-11 23:00N 32°20' W 090°54'0 0.8
2017-Sep-11 22:30N 32°20' W 090°54'1 1.0
2017-Sep-11 22:01N 32°20' W 090°54'2 3.7
2017-Sep-11 21:30N 32°19' W 090°55'0 0.9
2017-Sep-11 21:00N 32°18' W 090°55'2 3.0
2017-Sep-11 20:30N 32°20' W 090°54'1 2.0
2017-Sep-11 20:00N 32°21' W 090°54'1 2.7
2017-Sep-11 19:30N 32°22' W 090°53'1 2.7
2017-Sep-11 19:01N 32°23' W 090°53'1 1.1
2017-Sep-11 18:30N 32°23' W 090°52'2 4.1
2017-Sep-11 18:00N 32°21' W 090°53'2 3.5
2017-Sep-11 17:30N 32°22' W 090°53'2 3.7
2017-Sep-11 17:01N 32°24' W 090°55'0 0.3
2017-Sep-11 16:30N 32°24' W 090°55'2 3.4
2017-Sep-11 16:00N 32°22' W 090°53'1 1.9
2017-Sep-11 15:30N 32°22' W 090°53'1 1.8
2017-Sep-11 15:00N 32°21' W 090°53'1 1.8
2017-Sep-11 14:30N 32°22' W 090°53'1 1.6
2017-Sep-11 14:00N 32°22' W 090°53'0 0.7
2017-Sep-11 13:30N 32°23' W 090°53'2 3.4
2017-Sep-11 13:00N 32°24' W 090°55'1 2.6
2017-Sep-11 12:30N 32°23' W 090°54'2 4.2
2017-Sep-11 12:00N 32°21' W 090°54'1 1.9
2017-Sep-11 11:30N 32°20' W 090°54'3 6.9
2017-Sep-11 11:00N 32°21' W 090°58'1 2.0
2017-Sep-11 10:30N 32°21' W 090°59'2 4.8
2017-Sep-11 10:00N 32°21' W 090°56'2 4.2
2017-Sep-11 09:30N 32°21' W 090°53'1 1.4
2017-Sep-11 09:00N 32°21' W 090°53'0 0.6
2017-Sep-11 08:30N 32°21' W 090°53'1 2.9
2017-Sep-11 08:00N 32°20' W 090°54'1 2.8
2017-Sep-11 07:30N 32°18' W 090°55'1 1.2
2017-Sep-11 07:00N 32°18' W 090°55'0 0.2
2017-Sep-11 06:30N 32°18' W 090°55'2 3.7
2017-Sep-11 06:00N 32°20' W 090°54'4 8.8
2017-Sep-11 05:30N 32°21' W 090°59'1 2.3
2017-Sep-11 05:00N 32°21' W 090°58'3 5.4
2017-Sep-11 04:30N 32°20' W 090°54'1 2.7
2017-Sep-11 04:00N 32°21' W 090°53'1 1.3
2017-Sep-11 03:30N 32°21' W 090°54'0 0.0
2017-Sep-11 03:00N 32°21' W 090°54'2 3.3
2017-Sep-11 02:30N 32°22' W 090°53'0 0.4
2017-Sep-11 02:00N 32°22' W 090°53'1 2.4
2017-Sep-11 01:30N 32°23' W 090°54'1 1.8
2017-Sep-11 01:00N 32°22' W 090°53'0 0.4
2017-Sep-11 00:30N 32°22' W 090°53'0 0.2
2017-Sep-11 00:00N 32°23' W 090°54'2 3.9
2017-Sep-10 23:30N 32°21' W 090°53'1 2.1
2017-Sep-10 23:00N 32°20' W 090°54'1 2.7
2017-Sep-10 22:30N 32°21' W 090°53'0 0.3
2017-Sep-10 22:00N 32°21' W 090°53'0 0.5
2017-Sep-10 21:30N 32°21' W 090°53'1 1.7
2017-Sep-10 21:00N 32°22' W 090°53'1 1.6
2017-Sep-10 20:30N 32°22' W 090°53'1 2.7
2017-Sep-10 20:00N 32°23' W 090°54'1 3.0
2017-Sep-10 19:30N 32°23' W 090°53'0 0.2
2017-Sep-10 19:00N 32°23' W 090°53'1 1.4
2017-Sep-10 18:30N 32°22' W 090°53'2 3.2
2017-Sep-10 18:00N 32°23' W 090°55'2 4.2
2017-Sep-10 17:30N 32°22' W 090°53'1 2.7
2017-Sep-10 17:00N 32°21' W 090°53'0 0.4
2017-Sep-10 16:30N 32°21' W 090°53'2 3.0
2017-Sep-10 16:00N 32°22' W 090°53'1 1.3
2017-Sep-10 15:30N 32°22' W 090°53'2 3.3
2017-Sep-10 15:01N 32°24' W 090°55'2 2.3
2017-Sep-10 14:00N 32°22' W 090°53'1 2.7
2017-Sep-10 13:30N 32°21' W 090°53'1 2.6
2017-Sep-10 13:00N 32°21' W 090°55'4 7.1
2017-Sep-10 12:30N 32°21' W 090°59'2 4.9
2017-Sep-10 12:00N 32°21' W 090°56'2 4.1
2017-Sep-10 11:30N 32°21' W 090°54'1 1.9
2017-Sep-10 11:00N 32°20' W 090°54'1 1.7
2017-Sep-10 10:30N 32°20' W 090°54'0 0.1
2017-Sep-10 10:00N 32°20' W 090°54'1 2.7
2017-Sep-10 09:30N 32°22' W 090°53'0 0.9
2017-Sep-10 09:00N 32°22' W 090°53'0 0.7
2017-Sep-10 08:30N 32°22' W 090°53'1 2.6
2017-Sep-10 08:00N 32°21' W 090°53'1 2.4
2017-Sep-10 07:30N 32°20' W 090°54'4 7.2
2017-Sep-10 07:00N 32°21' W 090°59'0 0.5
2017-Sep-10 06:30N 32°21' W 090°59'0 0.0
2017-Sep-10 06:00N 32°21' W 090°59'3 5.2
2017-Sep-10 05:30N 32°21' W 090°56'2 4.8
2017-Sep-10 05:00N 32°21' W 090°53'1 1.2
2017-Sep-10 04:30N 32°22' W 090°53'1 2.7
2017-Sep-10 04:00N 32°20' W 090°54'1 2.8
2017-Sep-10 03:30N 32°21' W 090°55'1 1.1
2017-Sep-10 03:00N 32°21' W 090°55'2 3.0
2017-Sep-10 02:30N 32°21' W 090°53'1 2.2
2017-Sep-10 02:00N 32°20' W 090°54'2 3.5
2017-Sep-10 01:30N 32°21' W 090°56'0 0.2
2017-Sep-10 01:00N 32°21' W 090°56'2 3.5
2017-Sep-10 00:30N 32°20' W 090°54'0 0.5
2017-Sep-10 00:00N 32°20' W 090°54'0 0.0
2017-Sep-09 23:30N 32°20' W 090°54'0 0.0
2017-Sep-09 23:00N 32°20' W 090°54'  

Dump ship's entire track history